Terminal Aerodrome Forecast
Issued by NWS Wichita, KS

Home | Current Version | Previous Version | Graphics & Text | Print | Product List | Glossary On
Versions: 1 2 3 4 5 6 7 8 9 10 11 12 13 14 15 16 17 18 19 20 21 22 23 24
000
FTUS43 KICT 250025 AAB
TAFICT
TAF AMD
KICT 250025Z 2500/2524 01008KT P6SM VCTS SCT050CB BKN090
     FM250400 VRB06KT 6SM SHRA VCTS SCT035CB OVC060
      TEMPO 2504/2508 VRB25G35KT 1SM +TSRA OVC025CB
     FM250900 17007KT 6SM SHRA VCTS OVC025CB
     FM251600 12006KT P6SM SCT035 BKN080
     FM252100 12007KT P6SM VCTS BKN035CB=

USA.gov is the U.S. government's official web portal to all federal, state and local government web resources and services.